createdAt,value
2022-07-26T00:01:15.674Z,24.37
2022-07-26T00:03:42.061Z,24.38
2022-07-26T00:06:08.426Z,24.37
2022-07-26T00:08:34.781Z,24.37
2022-07-26T00:11:01.222Z,24.36
2022-07-26T00:13:33.852Z,24.35
2022-07-26T00:16:00.275Z,24.35
2022-07-26T00:18:26.688Z,24.34
2022-07-26T00:20:53.054Z,24.34
2022-07-26T00:23:21.893Z,24.35
2022-07-26T00:25:48.318Z,24.35
2022-07-26T00:28:14.683Z,24.33
2022-07-26T00:30:41.296Z,24.33
2022-07-26T00:33:07.668Z,24.32
2022-07-26T00:35:34.837Z,24.32
2022-07-26T00:38:01.192Z,24.31
2022-07-26T00:40:27.553Z,24.33
2022-07-26T00:42:53.911Z,24.35
2022-07-26T00:45:20.277Z,24.33
2022-07-26T00:47:46.684Z,24.32
2022-07-26T00:50:14.664Z,24.33
2022-07-26T00:52:44.498Z,24.31
2022-07-26T00:55:10.857Z,24.32
2022-07-26T00:57:37.693Z,24.30
2022-07-26T01:00:08.080Z,24.30
2022-07-26T01:02:34.535Z,24.33
2022-07-26T01:05:00.978Z,24.32
2022-07-26T01:07:27.563Z,24.31
2022-07-26T01:09:53.950Z,24.31
2022-07-26T01:12:20.364Z,24.32
2022-07-26T01:14:46.739Z,24.30
2022-07-26T01:17:16.542Z,24.30
2022-07-26T01:19:42.992Z,24.29
2022-07-26T01:22:14.204Z,24.28
2022-07-26T01:24:41.176Z,24.30
2022-07-26T01:27:07.752Z,24.27
2022-07-26T01:29:35.409Z,24.27
2022-07-26T01:32:04.054Z,24.26
2022-07-26T01:34:30.484Z,24.25
2022-07-26T01:36:56.956Z,24.23
2022-07-26T01:39:23.404Z,24.24
2022-07-26T01:41:49.773Z,24.23
2022-07-26T01:44:16.133Z,24.25
2022-07-26T01:46:42.520Z,24.24
2022-07-26T01:49:09.303Z,24.23
2022-07-26T01:51:35.812Z,24.22
2022-07-26T01:54:02.291Z,24.22
2022-07-26T01:56:28.645Z,24.22
2022-07-26T01:58:55.015Z,24.22
2022-07-26T02:01:38.772Z,24.21
2022-07-26T02:04:06.834Z,24.23
2022-07-26T02:06:33.817Z,24.22
2022-07-26T02:09:00.846Z,24.21
2022-07-26T02:11:28.363Z,24.21
2022-07-26T02:13:54.714Z,24.19
2022-07-26T02:16:21.121Z,24.18
2022-07-26T02:18:47.531Z,24.19
2022-07-26T02:21:13.897Z,24.17
2022-07-26T02:23:41.646Z,24.18
2022-07-26T02:26:08.195Z,24.17
2022-07-26T02:28:34.551Z,24.17
2022-07-26T02:31:00.998Z,24.16
2022-07-26T02:33:27.556Z,24.15
2022-07-26T02:35:53.937Z,24.14
2022-07-26T02:38:20.314Z,24.16
2022-07-26T02:40:46.738Z,24.16
2022-07-26T02:43:13.090Z,24.14
2022-07-26T02:45:39.500Z,24.14
2022-07-26T02:48:05.871Z,24.13
2022-07-26T02:50:32.258Z,24.14
2022-07-26T02:52:58.661Z,24.14
2022-07-26T02:55:42.687Z,24.13
2022-07-26T02:58:09.042Z,24.10
2022-07-26T03:00:35.430Z,24.11
2022-07-26T03:03:01.920Z,24.11
2022-07-26T03:05:28.338Z,24.10
2022-07-26T03:07:54.689Z,24.10
2022-07-26T03:10:21.058Z,24.09
2022-07-26T03:12:47.441Z,24.08
2022-07-26T03:15:13.825Z,24.08
2022-07-26T03:17:40.218Z,24.08
2022-07-26T03:20:06.774Z,24.08
2022-07-26T03:22:33.136Z,24.08
2022-07-26T03:24:59.547Z,24.07
2022-07-26T03:27:25.963Z,24.06
2022-07-26T03:29:52.322Z,24.04
2022-07-26T03:32:18.682Z,24.03
2022-07-26T03:34:45.053Z,24.03
2022-07-26T03:37:11.426Z,24.02
2022-07-26T03:39:38.234Z,24.01
2022-07-26T03:42:04.602Z,24.02
2022-07-26T03:44:30.962Z,24.00
2022-07-26T03:46:57.368Z,24.00
2022-07-26T03:49:23.828Z,23.99
2022-07-26T03:51:50.242Z,23.97
2022-07-26T03:54:16.598Z,23.96
2022-07-26T03:56:43.134Z,23.96
2022-07-26T03:59:09.803Z,23.94
2022-07-26T04:01:36.619Z,23.94
2022-07-26T04:04:03.030Z,23.95
2022-07-26T04:06:29.406Z,23.95
2022-07-26T04:08:56.424Z,23.95
2022-07-26T04:11:22.791Z,23.94
2022-07-26T04:13:53.127Z,23.93
2022-07-26T04:16:19.503Z,23.93
2022-07-26T04:18:45.898Z,23.92
2022-07-26T04:21:12.301Z,23.92
2022-07-26T04:23:38.663Z,23.14
2022-07-26T04:26:05.067Z,22.74
2022-07-26T04:28:31.436Z,22.73
2022-07-26T04:30:57.991Z,22.67
2022-07-26T04:33:24.407Z,22.68
2022-07-26T04:35:50.940Z,22.83
2022-07-26T04:38:17.318Z,22.65
2022-07-26T04:40:43.707Z,22.67
2022-07-26T04:43:15.520Z,22.72
2022-07-26T04:45:42.567Z,22.66
2022-07-26T04:48:08.973Z,22.74
2022-07-26T04:50:35.339Z,22.76
2022-07-26T04:53:04.470Z,22.83
2022-07-26T04:55:30.842Z,22.93
2022-07-26T04:57:57.211Z,22.93
2022-07-26T05:00:24.967Z,23.10
2022-07-26T05:02:52.791Z,23.03
2022-07-26T05:05:19.216Z,23.11
2022-07-26T05:07:46.010Z,23.00
2022-07-26T05:10:12.576Z,23.02
2022-07-26T05:12:38.943Z,23.11
2022-07-26T05:15:05.639Z,23.12
2022-07-26T05:17:40.086Z,23.18
2022-07-26T05:20:07.170Z,23.16
2022-07-26T05:22:33.980Z,22.96
2022-07-26T05:25:00.341Z,23.12
2022-07-26T05:27:26.865Z,23.07
2022-07-26T05:29:53.476Z,23.20
2022-07-26T05:32:19.857Z,23.31
2022-07-26T05:34:46.225Z,23.12
2022-07-26T05:37:12.685Z,23.15
2022-07-26T05:39:39.051Z,23.05
2022-07-26T05:42:05.422Z,23.15
2022-07-26T05:44:31.774Z,23.07
2022-07-26T05:46:58.133Z,23.05
2022-07-26T05:49:25.979Z,23.28
2022-07-26T05:51:52.520Z,23.26
2022-07-26T05:54:22.863Z,23.38
2022-07-26T05:56:49.475Z,23.22
2022-07-26T05:59:15.834Z,22.79
2022-07-26T06:01:42.194Z,23.00
2022-07-26T06:04:09.503Z,22.71
2022-07-26T06:06:36.225Z,23.02
2022-07-26T06:09:02.587Z,23.15
2022-07-26T06:11:29.014Z,23.03
2022-07-26T06:13:56.758Z,23.16
2022-07-26T06:16:23.285Z,23.08
2022-07-26T06:18:50.602Z,23.24
2022-07-26T06:21:16.962Z,23.04
2022-07-26T06:23:43.319Z,22.80
2022-07-26T06:26:09.686Z,22.95
2022-07-26T06:28:37.395Z,22.80
2022-07-26T06:31:03.769Z,22.89
2022-07-26T06:33:30.134Z,22.99
2022-07-26T06:35:56.501Z,23.17
2022-07-26T06:38:22.858Z,23.29
2022-07-26T06:40:49.215Z,23.08
2022-07-26T06:43:15.568Z,22.63
2022-07-26T06:45:42.238Z,22.52
2022-07-26T06:48:08.616Z,22.80
2022-07-26T06:50:34.991Z,22.72
2022-07-26T06:53:01.364Z,22.86
2022-07-26T06:55:27.726Z,22.95
2022-07-26T06:57:54.068Z,22.90
2022-07-26T07:00:20.448Z,23.11
2022-07-26T07:02:46.804Z,22.75
2022-07-26T07:05:13.279Z,22.72
2022-07-26T07:07:39.680Z,22.63
2022-07-26T07:10:08.589Z,22.56
2022-07-26T07:12:35.076Z,22.63
2022-07-26T07:15:01.425Z,22.61
2022-07-26T07:17:27.782Z,22.55
2022-07-26T07:19:54.133Z,22.61
2022-07-26T07:22:20.504Z,22.65
2022-07-26T07:24:46.858Z,22.59
2022-07-26T07:27:14.965Z,22.55
2022-07-26T07:29:43.286Z,22.48
2022-07-26T07:32:18.034Z,22.59
2022-07-26T07:34:45.805Z,22.82
2022-07-26T07:37:13.967Z,23.16
2022-07-26T07:39:40.364Z,23.35
2022-07-26T07:42:07.832Z,23.31
2022-07-26T07:44:34.199Z,23.14
2022-07-26T07:47:00.758Z,23.18
2022-07-26T07:49:27.220Z,23.38
2022-07-26T07:51:53.665Z,23.37
2022-07-26T07:54:20.207Z,23.68
2022-07-26T07:56:48.811Z,23.82
2022-07-26T07:59:15.197Z,23.91
2022-07-26T08:01:41.582Z,23.69
2022-07-26T08:04:10.751Z,23.71
2022-07-26T08:06:37.174Z,23.66
2022-07-26T08:09:03.872Z,23.74
2022-07-26T08:11:32.115Z,24.12
2022-07-26T08:14:00.371Z,24.06
2022-07-26T08:16:26.845Z,24.09
2022-07-26T08:18:57.745Z,24.07
2022-07-26T08:21:24.477Z,24.02
2022-07-26T08:23:53.837Z,24.01
2022-07-26T08:26:20.193Z,24.23
2022-07-26T08:28:48.088Z,24.34
2022-07-26T08:31:14.761Z,23.90
2022-07-26T08:33:45.874Z,24.19
2022-07-26T08:36:12.988Z,24.28
2022-07-26T08:38:39.382Z,24.35
2022-07-26T08:41:05.745Z,24.19
2022-07-26T08:43:32.102Z,24.20
2022-07-26T08:46:17.055Z,24.37
2022-07-26T08:48:43.473Z,24.01
2022-07-26T08:51:11.344Z,24.19
2022-07-26T08:53:37.970Z,24.29
2022-07-26T08:56:07.209Z,24.19
2022-07-26T08:58:35.159Z,24.06
2022-07-26T09:01:05.486Z,24.27
2022-07-26T09:03:32.096Z,24.13
2022-07-26T09:06:10.288Z,24.51
2022-07-26T09:08:37.159Z,24.37
2022-07-26T09:11:09.792Z,24.49
2022-07-26T09:13:52.089Z,23.90
2022-07-26T09:16:19.151Z,24.31
2022-07-26T09:18:45.636Z,24.69
2022-07-26T09:21:30.614Z,24.77
2022-07-26T09:23:57.018Z,24.58
2022-07-26T09:26:24.976Z,24.51
2022-07-26T09:29:04.520Z,24.71
2022-07-26T09:31:31.062Z,24.51
2022-07-26T09:33:58.907Z,24.67
2022-07-26T09:36:25.312Z,24.62
2022-07-26T09:38:52.384Z,24.46
2022-07-26T09:41:19.279Z,24.52
2022-07-26T09:43:49.078Z,24.73
2022-07-26T09:46:18.318Z,24.55
2022-07-26T09:49:14.619Z,24.43
2022-07-26T09:51:34.822Z,24.58
2022-07-26T09:54:01.716Z,24.76
2022-07-26T09:56:41.187Z,24.82
2022-07-26T09:59:07.543Z,25.18
2022-07-26T10:01:34.000Z,25.00
2022-07-26T10:04:00.390Z,25.17
2022-07-26T10:06:30.351Z,25.21
2022-07-26T10:08:57.025Z,25.49
2022-07-26T10:11:23.387Z,25.47
2022-07-26T10:13:49.805Z,25.33
2022-07-26T10:16:28.665Z,25.16
2022-07-26T10:18:57.776Z,25.21
2022-07-26T10:21:30.227Z,24.96
2022-07-26T10:23:57.558Z,25.47
2022-07-26T10:26:33.058Z,25.06
2022-07-26T10:29:17.816Z,24.77
2022-07-26T10:31:47.364Z,24.81
2022-07-26T10:34:32.934Z,24.82
2022-07-26T10:36:59.886Z,24.60
2022-07-26T10:39:26.261Z,24.77
2022-07-26T10:42:00.367Z,24.88
2022-07-26T10:44:30.507Z,24.97
2022-07-26T10:46:57.778Z,25.15
2022-07-26T10:49:31.031Z,25.12
2022-07-26T10:52:10.430Z,25.04
2022-07-26T10:54:55.520Z,24.91
2022-07-26T10:57:22.130Z,24.82
2022-07-26T10:59:55.778Z,24.57
2022-07-26T11:02:32.157Z,24.44
2022-07-26T11:04:59.352Z,24.39
2022-07-26T11:07:25.816Z,24.58
2022-07-26T11:09:55.013Z,24.65
2022-07-26T11:12:24.197Z,24.65
2022-07-26T11:14:50.758Z,24.70
2022-07-26T11:17:46.263Z,24.61
2022-07-26T11:20:12.626Z,24.64
2022-07-26T11:22:38.998Z,24.59
2022-07-26T11:25:05.519Z,24.49
2022-07-26T11:27:31.887Z,24.71
2022-07-26T11:30:03.029Z,24.69
2022-07-26T11:32:29.446Z,24.61
2022-07-26T11:35:02.279Z,24.81
2022-07-26T11:37:28.736Z,24.82
2022-07-26T11:39:55.098Z,24.76
2022-07-26T11:42:22.085Z,24.86
2022-07-26T11:44:48.699Z,24.83
2022-07-26T11:47:24.450Z,24.94
2022-07-26T11:50:11.646Z,24.83
2022-07-26T11:52:38.477Z,25.22
2022-07-26T11:55:05.009Z,25.33
2022-07-26T11:57:31.989Z,25.06
2022-07-26T11:59:58.909Z,25.12
2022-07-26T12:02:25.402Z,25.14
2022-07-26T12:04:56.803Z,25.09
2022-07-26T12:07:23.389Z,25.03
2022-07-26T12:09:50.436Z,25.30
2022-07-26T12:12:20.523Z,25.21
2022-07-26T12:14:55.286Z,25.18
2022-07-26T12:17:21.658Z,25.32
2022-07-26T12:19:48.025Z,25.22
2022-07-26T12:22:15.040Z,25.05
2022-07-26T12:24:45.583Z,25.11
2022-07-26T12:27:12.958Z,25.28
2022-07-26T12:29:39.620Z,25.20
2022-07-26T12:32:12.131Z,25.00
2022-07-26T12:34:39.238Z,24.82
2022-07-26T12:37:06.444Z,24.82
2022-07-26T12:39:32.817Z,24.73
2022-07-26T12:41:59.179Z,24.43
2022-07-26T12:44:25.579Z,24.67
2022-07-26T12:46:52.105Z,24.77
2022-07-26T12:49:18.669Z,24.78
2022-07-26T12:51:45.066Z,24.75
2022-07-26T12:54:11.730Z,24.85
2022-07-26T12:56:38.319Z,24.70
2022-07-26T12:59:05.727Z,24.70
2022-07-26T13:01:32.156Z,24.48
2022-07-26T13:03:59.744Z,24.62
2022-07-26T13:06:26.167Z,24.78
2022-07-26T13:08:52.532Z,24.85
2022-07-26T13:11:18.970Z,24.85
2022-07-26T13:13:45.323Z,24.87
2022-07-26T13:16:12.437Z,24.82
2022-07-26T13:18:38.930Z,24.79
2022-07-26T13:21:05.850Z,24.80
2022-07-26T13:23:32.279Z,24.76
2022-07-26T13:26:01.441Z,24.65
2022-07-26T13:28:29.807Z,24.62
2022-07-26T13:30:56.252Z,24.58
2022-07-26T13:33:22.708Z,24.57
2022-07-26T13:35:50.148Z,24.56
2022-07-26T13:38:19.100Z,24.55
2022-07-26T13:40:45.531Z,24.53
2022-07-26T13:43:11.884Z,24.54
2022-07-26T13:45:38.368Z,24.63
2022-07-26T13:48:04.861Z,24.75
2022-07-26T13:50:31.225Z,24.80
2022-07-26T13:52:57.670Z,24.83
2022-07-26T13:55:24.255Z,24.87
2022-07-26T13:57:56.335Z,24.89
2022-07-26T14:00:24.401Z,24.88
2022-07-26T14:02:50.837Z,24.91
2022-07-26T14:05:17.270Z,24.90
2022-07-26T14:07:43.682Z,24.93
2022-07-26T14:10:10.045Z,24.92
2022-07-26T14:12:37.993Z,24.91
2022-07-26T14:15:09.330Z,24.95
2022-07-26T14:17:38.497Z,24.98
2022-07-26T14:20:05.199Z,24.98
2022-07-26T14:22:31.571Z,25.00
2022-07-26T14:24:57.920Z,25.03
2022-07-26T14:27:24.284Z,25.05
2022-07-26T14:29:50.658Z,25.07
2022-07-26T14:32:21.488Z,25.11
2022-07-26T14:34:48.651Z,25.08
2022-07-26T14:37:42.764Z,25.07
2022-07-26T14:40:01.436Z,24.98
2022-07-26T14:42:27.849Z,24.95
2022-07-26T14:44:54.220Z,24.96
2022-07-26T14:47:20.595Z,25.13
2022-07-26T14:49:47.001Z,25.22
2022-07-26T14:52:13.461Z,25.23
2022-07-26T14:54:39.837Z,25.23
2022-07-26T14:57:06.338Z,25.23
2022-07-26T14:59:34.322Z,25.24
2022-07-26T15:02:05.469Z,25.27
2022-07-26T15:04:32.488Z,25.31
2022-07-26T15:06:59.631Z,25.32
2022-07-26T15:09:26.282Z,25.29
2022-07-26T15:11:53.126Z,25.28
2022-07-26T15:14:19.751Z,25.29
2022-07-26T15:16:46.470Z,25.31
2022-07-26T15:19:13.097Z,25.39
2022-07-26T15:21:39.608Z,25.45
2022-07-26T15:24:06.271Z,25.41
2022-07-26T15:26:32.670Z,25.47
2022-07-26T15:28:59.059Z,25.31
2022-07-26T15:31:37.368Z,25.32
2022-07-26T15:34:04.426Z,25.45
2022-07-26T15:36:30.914Z,25.47
2022-07-26T15:39:01.997Z,25.46
2022-07-26T15:41:40.933Z,25.46
2022-07-26T15:44:07.431Z,25.38
2022-07-26T15:46:33.949Z,25.35
2022-07-26T15:49:00.383Z,25.32
2022-07-26T15:51:26.784Z,25.34
2022-07-26T15:53:53.155Z,25.27
2022-07-26T15:56:19.507Z,25.32
2022-07-26T15:58:45.879Z,25.36
2022-07-26T16:01:13.149Z,25.38
2022-07-26T16:03:39.551Z,25.37
2022-07-26T16:06:06.301Z,25.36
2022-07-26T16:08:32.732Z,25.32
2022-07-26T16:10:59.110Z,25.35
2022-07-26T16:13:25.484Z,25.37
2022-07-26T16:15:51.856Z,25.39
2022-07-26T16:18:18.218Z,25.37
2022-07-26T16:20:44.575Z,25.38
2022-07-26T16:23:10.942Z,25.37
2022-07-26T16:25:37.301Z,25.31
2022-07-26T16:28:03.727Z,25.31
2022-07-26T16:30:30.092Z,25.22
2022-07-26T16:32:56.517Z,25.24
2022-07-26T16:35:22.910Z,25.29
2022-07-26T16:37:50.172Z,25.37
2022-07-26T16:40:16.535Z,25.16
2022-07-26T16:42:42.931Z,25.01
2022-07-26T16:45:09.291Z,24.98
2022-07-26T16:47:35.898Z,24.99
2022-07-26T16:50:02.323Z,24.92
2022-07-26T16:52:28.679Z,24.92
2022-07-26T16:54:55.031Z,24.81
2022-07-26T16:57:21.377Z,24.77
2022-07-26T16:59:47.766Z,24.81
2022-07-26T17:02:14.159Z,24.81
2022-07-26T17:04:40.578Z,24.87
2022-07-26T17:09:53.743Z,24.86
2022-07-26T17:12:20.370Z,24.85
2022-07-26T17:14:46.733Z,24.85
2022-07-26T17:17:13.083Z,24.85
2022-07-26T17:19:39.439Z,24.86
2022-07-26T17:22:05.795Z,24.87
2022-07-26T17:24:32.246Z,24.86
2022-07-26T17:26:58.595Z,24.86
2022-07-26T17:29:24.973Z,24.86
2022-07-26T17:31:51.346Z,24.84
2022-07-26T17:34:17.705Z,24.84
2022-07-26T17:36:44.848Z,24.86
2022-07-26T17:39:15.655Z,24.85
2022-07-26T17:41:44.988Z,24.84
2022-07-26T17:44:14.008Z,24.86
2022-07-26T17:46:40.450Z,24.87
2022-07-26T17:49:06.929Z,24.87
2022-07-26T17:51:33.362Z,24.88
2022-07-26T17:53:59.813Z,24.89
2022-07-26T17:56:26.271Z,24.89
2022-07-26T17:58:52.661Z,24.91
2022-07-26T18:01:19.116Z,24.90
2022-07-26T18:03:45.563Z,24.88
2022-07-26T18:06:11.991Z,24.84
2022-07-26T18:08:38.498Z,24.87
2022-07-26T18:11:05.307Z,24.85
2022-07-26T18:13:31.672Z,24.85
2022-07-26T18:15:59.306Z,24.84
2022-07-26T18:18:28.292Z,24.84
2022-07-26T18:20:54.823Z,24.82
2022-07-26T18:23:21.190Z,24.80
2022-07-26T18:25:47.540Z,24.79
2022-07-26T18:28:13.902Z,24.79
2022-07-26T18:30:40.275Z,24.78
2022-07-26T18:33:08.730Z,24.76
2022-07-26T18:35:35.087Z,24.75
2022-07-26T18:38:01.835Z,24.67
2022-07-26T18:40:28.471Z,24.58
2022-07-26T18:42:54.822Z,24.56
2022-07-26T18:45:21.210Z,24.60
2022-07-26T18:47:47.807Z,24.64
2022-07-26T18:50:17.103Z,24.67
2022-07-26T18:52:43.744Z,24.59
2022-07-26T18:55:12.199Z,24.50
2022-07-26T18:57:39.196Z,24.40
2022-07-26T19:00:06.649Z,24.38
2022-07-26T19:02:33.015Z,24.42
2022-07-26T19:04:59.375Z,24.51
2022-07-26T19:07:25.771Z,24.46
2022-07-26T19:09:57.911Z,24.41
2022-07-26T19:12:25.009Z,24.33
2022-07-26T19:14:51.366Z,24.30
2022-07-26T19:17:17.788Z,24.28
2022-07-26T19:19:44.142Z,24.32
2022-07-26T19:22:10.549Z,24.36
2022-07-26T19:24:42.926Z,24.38
2022-07-26T19:27:09.476Z,24.38
2022-07-26T19:29:36.408Z,24.35
2022-07-26T19:32:02.759Z,24.35
2022-07-26T19:34:29.147Z,24.34
2022-07-26T19:36:55.511Z,24.34
2022-07-26T19:39:21.919Z,24.32
2022-07-26T19:41:48.292Z,24.31
2022-07-26T19:44:14.944Z,24.29
2022-07-26T19:46:41.369Z,24.28
2022-07-26T19:49:09.727Z,24.29
2022-07-26T19:51:36.541Z,24.27
2022-07-26T19:54:02.889Z,24.26
2022-07-26T19:56:29.252Z,24.25
2022-07-26T19:58:55.818Z,24.24
2022-07-26T20:01:23.111Z,24.24
2022-07-26T20:03:49.649Z,24.24
2022-07-26T20:06:16.022Z,24.23
2022-07-26T20:08:42.438Z,24.23
2022-07-26T20:11:08.819Z,24.21
2022-07-26T20:13:35.318Z,24.21
2022-07-26T20:16:02.134Z,24.20
2022-07-26T20:18:30.687Z,24.19
2022-07-26T20:20:57.079Z,24.18
2022-07-26T20:23:23.538Z,24.18
2022-07-26T20:25:49.919Z,24.16
2022-07-26T20:28:16.292Z,24.17
2022-07-26T20:30:42.735Z,24.15
2022-07-26T20:33:09.220Z,24.17
2022-07-26T20:35:35.854Z,24.16
2022-07-26T20:38:02.233Z,24.16
2022-07-26T20:40:28.930Z,24.15
2022-07-26T20:42:55.495Z,24.16
2022-07-26T20:45:25.137Z,24.14
2022-07-26T20:47:51.910Z,24.14
2022-07-26T20:50:18.311Z,24.13
2022-07-26T20:52:44.662Z,24.13
2022-07-26T20:55:11.153Z,24.12
2022-07-26T20:57:37.515Z,24.12
2022-07-26T21:00:06.334Z,24.12
2022-07-26T21:02:32.754Z,24.09
2022-07-26T21:04:59.179Z,24.10
2022-07-26T21:07:58.498Z,24.10
2022-07-26T21:10:12.843Z,24.11
2022-07-26T21:12:39.229Z,24.10
2022-07-26T21:15:06.258Z,24.08
2022-07-26T21:17:32.746Z,24.07
2022-07-26T21:20:00.995Z,24.07
2022-07-26T21:22:28.536Z,24.07
2022-07-26T21:24:54.895Z,24.05
2022-07-26T21:27:21.255Z,24.05
2022-07-26T21:29:47.658Z,24.05
2022-07-26T21:32:14.021Z,24.02
2022-07-26T21:34:40.442Z,24.03
2022-07-26T21:37:06.964Z,24.02
2022-07-26T21:39:33.339Z,24.04
2022-07-26T21:41:59.729Z,24.03
2022-07-26T21:44:26.782Z,24.03
2022-07-26T21:46:54.906Z,24.03
2022-07-26T21:49:21.379Z,24.02
2022-07-26T21:51:47.774Z,24.01
2022-07-26T21:54:14.146Z,24.01
2022-07-26T21:56:40.791Z,24.00
2022-07-26T21:59:07.165Z,24.00
2022-07-26T22:01:33.617Z,24.00
2022-07-26T22:04:00.050Z,23.99
2022-07-26T22:06:26.428Z,24.02
2022-07-26T22:08:52.786Z,24.01
2022-07-26T22:11:19.156Z,24.01
2022-07-26T22:13:46.292Z,23.99
2022-07-26T22:16:13.869Z,24.00
2022-07-26T22:18:40.326Z,23.99
2022-07-26T22:21:06.679Z,24.00
2022-07-26T22:23:33.422Z,23.99
2022-07-26T22:26:01.641Z,23.96
2022-07-26T22:28:28.226Z,23.98
2022-07-26T22:30:54.749Z,23.97
2022-07-26T22:33:21.128Z,23.96
2022-07-26T22:35:47.478Z,23.99
2022-07-26T22:38:13.845Z,24.00
2022-07-26T22:40:40.494Z,24.00
2022-07-26T22:43:06.877Z,24.01
2022-07-26T22:45:33.768Z,24.00
2022-07-26T22:48:01.148Z,24.02
2022-07-26T22:50:27.910Z,24.03
2022-07-26T22:52:54.280Z,24.04
2022-07-26T22:55:20.645Z,24.03
2022-07-26T22:57:47.059Z,24.04
2022-07-26T23:00:14.128Z,24.04
2022-07-26T23:02:40.496Z,24.04
2022-07-26T23:05:07.068Z,24.03
2022-07-26T23:07:35.115Z,24.03
2022-07-26T23:10:01.679Z,24.04
2022-07-26T23:12:28.120Z,24.04
2022-07-26T23:14:54.490Z,24.04
2022-07-26T23:17:20.846Z,24.04
2022-07-26T23:19:47.228Z,24.03
2022-07-26T23:22:13.581Z,24.03
2022-07-26T23:24:41.177Z,24.03
2022-07-26T23:27:09.974Z,24.03
2022-07-26T23:29:36.347Z,24.03
2022-07-26T23:32:02.728Z,24.03
2022-07-26T23:34:29.091Z,24.03
2022-07-26T23:36:55.453Z,24.03
2022-07-26T23:39:22.434Z,24.02
2022-07-26T23:41:48.783Z,24.00
2022-07-26T23:44:15.134Z,24.02
2022-07-26T23:46:41.525Z,24.01
2022-07-26T23:49:08.142Z,24.02
2022-07-26T23:51:34.739Z,24.02
2022-07-26T23:54:01.108Z,24.03
2022-07-26T23:56:27.456Z,24.03
2022-07-26T23:58:53.827Z,24.02
